Flight Number: EUR1154 Duration: 1:00
Departure: Budapest Ferihegy (LHBP) at 08:15 Distance: 343 Nm
Arrival: Skopje Airport (LWSK) at 09:15 Equipment: A321

Weather Information
Budapest / Ferihegy, Hungary (LHBP) 47-26N 019-16E 185M May 23, 2018 - 08:00 PM EDT / 2018.05.24 0000 UTC
Wind: from the NE (040 degrees) at 6 MPH (5 KT) (direction variable):0
Visibility: greater than 7 mile(s):0 Temperature: 66 F (19 C) Dew Point: 59 F (15 C) Relative Humidity: 77% Pressure (altimeter): 30.03 in. Hg (1017 hPa)
ob: LHBP 240000Z 04005KT 020V080 CAVOK 19/15 Q1017 NOSIG cycle: 0
Sunrise: 02:59 Sunset: 18:19 (UTC)

Skopje-Petrovec, Macedonia, The Republic of (LWSK) 41-58N 021-39E 239M May 23, 2018 - 08:00 PM EDT / 2018.05.24 0000 UTC
Wind: from the E (080 degrees) at 2 MPH (2 KT):0
Visibility: greater than 7 mile(s):0
Sky conditions: mostly cloudy Temperature: 60 F (16 C) Dew Point: 57 F (14 C) Relative Humidity: 87% Pressure (altimeter): 30.03 in. Hg (1017 hPa)
ob: LWSK 240000Z 08002KT 9999 FEW030 BKN100 16/14 Q1017 NOSIG cycle: 0
Sunrise: 03:08 Sunset: 17:52 (UTC)

TAF:2018/05/23 21:44 TAF LWSK 232030Z 2321/2421 VRB02KT 9999 SCT045 BKN090 PROB30 TEMPO 2321/2323 VRB15KT TSRA FEW033CB BKN040

Previous Pireps for this route
Date Aircraft Flight time Fuel used Landing rate On time
2012-09-09A32101.34-9115-1105No
2012-09-28A32101.1610170-273Yes
2012-10-26A32101.4910150-574Charter
2013-02-09A32101.2411588-164Yes
2013-08-19A3211.0080000No
2013-09-30A32101.3511762-273No
2014-05-12A32101.168038-238Yes
2014-11-15A3211.1377700Yes
2014-11-15A3211.1377700No
2015-04-02A32101.107459-425No
2016-05-21A3211,0060000Yes
2016-12-27A3211.1189460No
(pireps marked green are flown by you)

Route map